createdAt,value
2023-09-19T00:00:49.634Z,26.31
2023-09-19T00:01:55.791Z,26.31
2023-09-19T00:03:01.817Z,26.32
2023-09-19T00:04:14.591Z,26.32
2023-09-19T00:05:19.731Z,26.34
2023-09-19T00:06:28.343Z,26.36
2023-09-19T00:07:33.174Z,26.37
2023-09-19T00:08:39.257Z,26.39
2023-09-19T00:09:47.521Z,26.38
2023-09-19T00:10:53.497Z,26.35
2023-09-19T00:11:58.441Z,26.36
2023-09-19T00:13:09.381Z,26.37
2023-09-19T00:14:16.140Z,26.39
2023-09-19T00:15:22.593Z,26.40
2023-09-19T00:16:27.781Z,26.43
2023-09-19T00:17:34.085Z,26.44
2023-09-19T00:18:39.008Z,26.47
2023-09-19T00:19:46.165Z,26.49
2023-09-19T00:20:54.916Z,26.51
2023-09-19T00:22:00.987Z,26.52
2023-09-19T00:23:06.843Z,26.52
2023-09-19T00:24:14.147Z,26.55
2023-09-19T00:25:19.571Z,26.55
2023-09-19T00:26:26.501Z,26.57
2023-09-19T00:27:31.895Z,26.59
2023-09-19T00:28:39.530Z,26.62
2023-09-19T00:29:44.397Z,26.62
2023-09-19T00:30:53.383Z,26.63
2023-09-19T00:31:58.986Z,26.63
2023-09-19T00:33:08.194Z,26.65
2023-09-19T00:34:12.949Z,26.66
2023-09-19T00:35:19.311Z,26.65
2023-09-19T00:36:24.077Z,26.66
2023-09-19T00:37:30.158Z,26.66
2023-09-19T00:38:34.948Z,26.65
2023-09-19T00:39:40.919Z,26.64
2023-09-19T00:40:47.657Z,26.64
2023-09-19T00:41:53.626Z,26.65
2023-09-19T00:43:02.520Z,26.65
2023-09-19T00:44:12.459Z,26.62
2023-09-19T00:45:18.361Z,26.60
2023-09-19T00:46:24.798Z,26.61
2023-09-19T00:47:33.287Z,26.59
2023-09-19T00:48:46.126Z,26.60
2023-09-19T00:49:54.730Z,26.59
2023-09-19T00:51:02.316Z,26.60
2023-09-19T00:52:08.037Z,26.60
2023-09-19T00:53:15.243Z,26.61
2023-09-19T00:54:20.274Z,26.60
2023-09-19T00:55:26.782Z,26.60
2023-09-19T00:56:31.745Z,26.61
2023-09-19T00:57:38.655Z,26.60
2023-09-19T00:58:43.455Z,26.61
2023-09-19T00:59:55.237Z,26.62
2023-09-19T01:00:59.912Z,26.62
2023-09-19T01:02:06.738Z,26.62
2023-09-19T01:03:11.936Z,26.64
2023-09-19T01:04:19.710Z,26.64
2023-09-19T01:05:26.015Z,26.66
2023-09-19T01:06:31.969Z,26.68
2023-09-19T01:07:36.708Z,26.71
2023-09-19T01:08:42.829Z,26.71
2023-09-19T01:09:47.529Z,26.71
2023-09-19T01:11:02.599Z,26.72
2023-09-19T01:12:11.027Z,26.74
2023-09-19T01:13:26.947Z,26.75
2023-09-19T01:14:39.838Z,26.79
2023-09-19T01:15:55.712Z,26.82
2023-09-19T01:17:06.681Z,26.84
2023-09-19T01:18:20.957Z,26.86
2023-09-19T01:19:56.071Z,26.87
2023-09-19T01:21:08.396Z,26.90
2023-09-19T01:22:20.400Z,26.92
2023-09-19T01:23:30.449Z,26.96
2023-09-19T01:25:19.286Z,26.99
2023-09-19T01:26:34.831Z,27.04
2023-09-19T01:28:18.082Z,27.05
2023-09-19T01:29:38.306Z,27.07
2023-09-19T01:30:48.544Z,27.09
2023-09-19T01:31:57.126Z,27.13
2023-09-19T01:33:02.338Z,27.14
2023-09-19T01:34:09.875Z,27.15
2023-09-19T01:35:15.393Z,27.17
2023-09-19T01:36:20.099Z,27.19
2023-09-19T01:37:27.906Z,27.21
2023-09-19T01:38:34.766Z,27.23
2023-09-19T01:39:41.211Z,27.24
2023-09-19T01:40:46.865Z,27.24
2023-09-19T01:42:02.464Z,27.27
2023-09-19T01:43:11.985Z,27.29
2023-09-19T01:44:25.918Z,27.30
2023-09-19T01:45:38.861Z,27.31
2023-09-19T01:46:47.472Z,27.33
2023-09-19T01:48:00.009Z,27.36
2023-09-19T01:49:11.805Z,27.38
2023-09-19T01:50:23.251Z,27.39
2023-09-19T01:51:36.228Z,27.42
2023-09-19T01:52:45.918Z,27.42
2023-09-19T01:53:58.807Z,27.45
2023-09-19T01:55:09.470Z,27.45
2023-09-19T01:56:20.847Z,27.47
2023-09-19T01:57:30.803Z,27.51
2023-09-19T01:58:40.272Z,27.55
2023-09-19T01:59:51.444Z,27.58
2023-09-19T02:00:57.339Z,27.60
2023-09-19T02:02:06.031Z,27.61
2023-09-19T02:03:12.515Z,27.61
2023-09-19T02:04:18.679Z,27.62
2023-09-19T02:05:26.955Z,27.62
2023-09-19T02:06:33.187Z,27.64
2023-09-19T02:07:38.119Z,27.65
2023-09-19T02:08:44.158Z,27.68
2023-09-19T02:09:50.077Z,27.70
2023-09-19T02:10:56.208Z,27.73
2023-09-19T02:12:01.153Z,27.74
2023-09-19T02:13:08.158Z,27.75
2023-09-19T02:14:12.869Z,27.76
2023-09-19T02:15:19.621Z,27.78
2023-09-19T02:16:24.440Z,27.79
2023-09-19T02:17:33.281Z,27.80
2023-09-19T02:18:38.174Z,27.83
2023-09-19T02:19:44.549Z,27.84
2023-09-19T02:20:49.996Z,27.86
2023-09-19T02:21:55.991Z,27.89
2023-09-19T02:23:00.976Z,27.91
2023-09-19T02:24:07.787Z,27.91
2023-09-19T02:25:13.442Z,27.92
2023-09-19T02:26:22.649Z,27.93
2023-09-19T02:27:27.381Z,27.96
2023-09-19T02:28:34.090Z,27.97
2023-09-19T02:29:38.913Z,28.00
2023-09-19T02:30:45.195Z,28.02
2023-09-19T02:31:49.989Z,28.03
2023-09-19T02:32:57.803Z,28.05
2023-09-19T02:34:02.493Z,28.09
2023-09-19T02:35:14.936Z,28.09
2023-09-19T02:36:19.724Z,28.10
2023-09-19T02:37:26.812Z,28.09
2023-09-19T02:38:31.786Z,28.11
2023-09-19T02:39:37.772Z,28.13
2023-09-19T02:40:42.613Z,28.14
2023-09-19T02:41:48.943Z,28.15
2023-09-19T02:42:57.196Z,28.16
2023-09-19T02:44:03.647Z,28.18
2023-09-19T02:45:09.457Z,28.20
2023-09-19T02:46:15.691Z,28.19
2023-09-19T02:47:23.238Z,28.18
2023-09-19T02:48:31.583Z,28.18
2023-09-19T02:49:36.973Z,28.20
2023-09-19T02:50:43.394Z,28.21
2023-09-19T02:51:49.617Z,28.23
2023-09-19T02:52:55.686Z,28.25
2023-09-19T02:54:00.404Z,28.27
2023-09-19T02:55:08.089Z,28.27
2023-09-19T02:56:17.569Z,28.31
2023-09-19T02:57:23.606Z,28.34
2023-09-19T02:58:29.892Z,28.36
2023-09-19T02:59:40.142Z,28.38
2023-09-19T03:00:49.314Z,28.42
2023-09-19T03:01:56.662Z,28.46
2023-09-19T03:03:01.794Z,28.48
2023-09-19T03:04:11.954Z,28.50
2023-09-19T03:05:17.360Z,28.51
2023-09-19T03:06:23.693Z,28.53
2023-09-19T03:07:28.416Z,28.55
2023-09-19T03:08:40.487Z,28.55
2023-09-19T03:09:45.403Z,28.56
2023-09-19T03:10:51.691Z,28.58
2023-09-19T03:11:56.702Z,28.60
2023-09-19T03:13:03.922Z,28.61
2023-09-19T03:14:08.726Z,28.64
2023-09-19T03:15:14.872Z,28.66
2023-09-19T03:16:24.371Z,28.68
2023-09-19T03:17:30.471Z,28.70
2023-09-19T03:18:36.304Z,28.71
2023-09-19T03:19:43.968Z,28.70
2023-09-19T03:20:56.965Z,28.72
2023-09-19T03:22:03.057Z,28.71
2023-09-19T03:23:08.287Z,28.74
2023-09-19T03:24:14.914Z,28.77
2023-09-19T03:25:19.859Z,28.79
2023-09-19T03:26:24.574Z,28.82
2023-09-19T03:27:30.788Z,28.87
2023-09-19T03:28:37.285Z,28.91
2023-09-19T03:29:43.660Z,28.93
2023-09-19T03:30:48.477Z,28.94
2023-09-19T03:31:55.229Z,28.95
2023-09-19T03:33:00.034Z,28.97
2023-09-19T03:34:06.333Z,28.99
2023-09-19T03:35:16.008Z,29.00
2023-09-19T03:36:21.948Z,29.02
2023-09-19T03:37:26.679Z,29.07
2023-09-19T03:38:32.865Z,29.10
2023-09-19T03:39:37.604Z,29.12
2023-09-19T03:40:43.912Z,29.14
2023-09-19T03:41:48.651Z,29.15
2023-09-19T03:42:54.675Z,29.16
2023-09-19T03:44:00.413Z,29.19
2023-09-19T03:45:07.709Z,29.22
2023-09-19T03:46:14.820Z,29.24
2023-09-19T03:47:27.485Z,29.27
2023-09-19T03:48:32.906Z,29.28
2023-09-19T03:49:39.067Z,29.30
2023-09-19T03:50:46.012Z,29.32
2023-09-19T03:51:52.024Z,29.34
2023-09-19T03:53:00.676Z,29.35
2023-09-19T03:54:07.772Z,29.38
2023-09-19T03:55:12.564Z,29.38
2023-09-19T03:56:18.560Z,29.41
2023-09-19T03:57:23.286Z,29.45
2023-09-19T03:58:29.334Z,29.46
2023-09-19T03:59:34.021Z,29.48
2023-09-19T04:00:40.368Z,29.49
2023-09-19T04:01:45.132Z,29.52
2023-09-19T04:02:51.271Z,29.54
2023-09-19T04:03:56.109Z,29.56
2023-09-19T04:05:02.189Z,29.57
2023-09-19T04:06:08.633Z,29.60
2023-09-19T04:07:14.949Z,29.61
2023-09-19T04:08:19.679Z,29.61
2023-09-19T04:09:25.656Z,29.61
2023-09-19T04:10:30.647Z,29.62
2023-09-19T04:11:37.082Z,29.63
2023-09-19T04:12:42.417Z,29.66
2023-09-19T04:13:48.418Z,29.68
2023-09-19T04:14:53.725Z,29.72
2023-09-19T04:15:59.732Z,29.71
2023-09-19T04:17:04.951Z,29.72
2023-09-19T04:18:11.045Z,29.73
2023-09-19T04:19:16.728Z,29.75
2023-09-19T04:20:25.012Z,29.76
2023-09-19T04:21:31.331Z,29.79
2023-09-19T04:22:37.344Z,29.81
2023-09-19T04:23:42.298Z,29.83
2023-09-19T04:24:48.334Z,29.86
2023-09-19T04:25:53.164Z,29.89
2023-09-19T04:26:59.294Z,29.92
2023-09-19T04:28:04.426Z,29.94
2023-09-19T04:29:13.085Z,29.97
2023-09-19T04:30:18.267Z,29.99
2023-09-19T04:31:24.487Z,30.01
2023-09-19T04:32:31.933Z,30.03
2023-09-19T04:33:38.722Z,30.05
2023-09-19T04:34:43.658Z,30.08
2023-09-19T04:35:48.343Z,30.09
2023-09-19T04:36:56.575Z,30.12
2023-09-19T04:38:01.232Z,30.15
2023-09-19T04:39:07.984Z,30.18
2023-09-19T04:40:21.126Z,30.21
2023-09-19T04:41:26.625Z,30.22
2023-09-19T04:42:32.630Z,30.25
2023-09-19T04:43:37.583Z,30.29
2023-09-19T04:44:44.858Z,30.31
2023-09-19T04:45:49.533Z,30.33
2023-09-19T04:46:55.660Z,30.37
2023-09-19T04:48:00.402Z,30.40
2023-09-19T04:49:05.274Z,30.42
2023-09-19T04:50:15.795Z,30.45
2023-09-19T04:51:20.919Z,30.46
2023-09-19T04:52:28.571Z,30.47
2023-09-19T04:53:33.279Z,30.50
2023-09-19T04:54:39.735Z,30.52
2023-09-19T04:55:44.495Z,30.54
2023-09-19T04:56:50.578Z,30.54
2023-09-19T04:57:55.656Z,30.59
2023-09-19T04:59:02.068Z,30.61
2023-09-19T05:00:14.257Z,30.65
2023-09-19T05:01:21.055Z,30.69
2023-09-19T05:02:26.672Z,30.74
2023-09-19T05:03:32.483Z,30.77
2023-09-19T05:04:37.742Z,30.79
2023-09-19T05:05:44.704Z,30.80
2023-09-19T05:06:50.021Z,30.81
2023-09-19T05:07:57.838Z,30.82
2023-09-19T05:09:02.386Z,30.83
2023-09-19T05:10:09.265Z,30.83
2023-09-19T05:11:13.745Z,30.84
2023-09-19T05:12:20.494Z,30.84
2023-09-19T05:13:25.643Z,30.85
2023-09-19T05:14:32.029Z,30.87
2023-09-19T05:15:37.788Z,30.89
2023-09-19T05:16:44.267Z,30.91
2023-09-19T05:17:54.752Z,30.94
2023-09-19T05:19:03.591Z,30.97
2023-09-19T05:20:11.585Z,31.00
2023-09-19T05:21:17.403Z,31.03
2023-09-19T05:22:21.920Z,31.05
2023-09-19T05:23:29.498Z,31.05
2023-09-19T05:24:34.076Z,31.07
2023-09-19T05:25:41.505Z,31.06
2023-09-19T05:26:46.260Z,31.07
2023-09-19T05:27:53.540Z,31.07
2023-09-19T05:28:58.867Z,31.09
2023-09-19T05:30:04.665Z,31.08
2023-09-19T05:31:09.203Z,31.10
2023-09-19T05:32:15.251Z,31.10
2023-09-19T05:33:20.416Z,31.08
2023-09-19T05:34:27.453Z,31.08
2023-09-19T05:35:32.022Z,31.08
2023-09-19T05:36:37.844Z,31.08
2023-09-19T05:37:42.371Z,31.09
2023-09-19T05:38:53.672Z,31.11
2023-09-19T05:39:58.331Z,31.13
2023-09-19T05:41:04.233Z,31.15
2023-09-19T05:42:10.201Z,31.17
2023-09-19T05:43:16.385Z,31.19
2023-09-19T05:44:20.836Z,31.23
2023-09-19T05:45:26.856Z,31.25
2023-09-19T05:46:31.829Z,31.29
2023-09-19T05:47:37.909Z,31.30
2023-09-19T05:48:43.684Z,31.33
2023-09-19T05:49:50.219Z,31.36
2023-09-19T05:50:54.825Z,31.41
2023-09-19T05:52:01.184Z,31.46
2023-09-19T05:53:06.284Z,31.52
2023-09-19T05:54:13.789Z,31.56
2023-09-19T05:55:18.349Z,31.62
2023-09-19T05:56:24.586Z,31.65
2023-09-19T05:57:29.776Z,31.69
2023-09-19T05:58:35.616Z,31.69
2023-09-19T05:59:41.934Z,31.75
2023-09-19T06:00:49.490Z,31.76
2023-09-19T06:01:54.371Z,31.78
2023-09-19T06:03:01.267Z,31.81
2023-09-19T06:04:06.822Z,31.84
2023-09-19T06:05:13.885Z,31.86
2023-09-19T06:06:18.624Z,31.89
2023-09-19T06:07:24.479Z,31.92
2023-09-19T06:08:30.048Z,31.93
2023-09-19T06:09:37.579Z,31.93
2023-09-19T06:10:42.380Z,31.95
2023-09-19T06:11:48.855Z,31.94
2023-09-19T06:12:53.389Z,31.95
2023-09-19T06:13:59.218Z,31.96
2023-09-19T06:15:03.731Z,31.98
2023-09-19T06:16:11.598Z,31.98
2023-09-19T06:17:16.475Z,31.99
2023-09-19T06:18:23.140Z,32.00
2023-09-19T06:19:27.865Z,32.02
2023-09-19T06:20:35.174Z,32.05
2023-09-19T06:21:39.803Z,32.07
2023-09-19T06:22:44.756Z,32.10
2023-09-19T06:23:50.576Z,32.15
2023-09-19T06:24:56.793Z,32.17
2023-09-19T06:26:02.715Z,32.22
2023-09-19T06:27:09.207Z,32.26
2023-09-19T06:28:16.734Z,32.28
2023-09-19T06:29:23.039Z,32.29
2023-09-19T06:30:31.507Z,32.29
2023-09-19T06:31:36.115Z,32.33
2023-09-19T06:32:42.369Z,32.36
2023-09-19T06:33:47.051Z,32.38
2023-09-19T06:34:57.845Z,32.39
2023-09-19T06:36:03.713Z,32.43
2023-09-19T06:37:08.576Z,32.47
2023-09-19T06:38:15.158Z,32.52
2023-09-19T06:39:19.646Z,32.58
2023-09-19T06:40:27.206Z,32.63
2023-09-19T06:41:32.712Z,32.68
2023-09-19T06:42:39.137Z,32.74
2023-09-19T06:43:44.082Z,32.76
2023-09-19T06:44:49.930Z,32.82
2023-09-19T06:45:58.098Z,32.86
2023-09-19T06:47:03.962Z,32.92
2023-09-19T06:48:09.601Z,32.96
2023-09-19T06:49:17.432Z,32.98
2023-09-19T06:50:24.620Z,32.98
2023-09-19T06:51:31.875Z,32.96
2023-09-19T06:52:36.403Z,32.93
2023-09-19T06:53:43.218Z,32.94
2023-09-19T06:54:47.696Z,32.95
2023-09-19T06:55:55.256Z,33.00
2023-09-19T06:57:00.761Z,33.06
2023-09-19T06:58:08.105Z,33.12
2023-09-19T06:59:16.356Z,33.15
2023-09-19T07:00:24.009Z,33.18
2023-09-19T07:01:28.579Z,33.18
2023-09-19T07:02:34.550Z,33.14
2023-09-19T07:03:39.415Z,33.10
2023-09-19T07:04:45.466Z,33.10
2023-09-19T07:05:51.161Z,33.12
2023-09-19T07:06:56.983Z,33.15
2023-09-19T07:08:02.968Z,33.17
2023-09-19T07:09:08.920Z,33.21
2023-09-19T07:10:15.290Z,33.32
2023-09-19T07:11:23.561Z,33.42
2023-09-19T07:12:28.116Z,33.49
2023-09-19T07:13:34.580Z,33.54
2023-09-19T07:14:39.071Z,33.55
2023-09-19T07:15:50.464Z,33.62
2023-09-19T07:16:55.029Z,33.69
2023-09-19T07:18:01.026Z,33.70
2023-09-19T07:19:05.603Z,33.70
2023-09-19T07:20:12.600Z,33.73
2023-09-19T07:21:18.023Z,33.72
2023-09-19T07:22:23.980Z,33.71
2023-09-19T07:23:28.496Z,33.68
2023-09-19T07:24:34.676Z,33.64
2023-09-19T07:25:39.304Z,33.61
2023-09-19T07:26:46.775Z,33.60
2023-09-19T07:27:51.270Z,33.57
2023-09-19T07:28:58.150Z,33.59
2023-09-19T07:30:02.691Z,33.60
2023-09-19T07:31:09.152Z,33.66
2023-09-19T07:32:13.964Z,33.74
2023-09-19T07:33:20.161Z,33.81
2023-09-19T07:34:25.576Z,33.89
2023-09-19T07:35:30.109Z,33.99
2023-09-19T07:36:35.918Z,34.05
2023-09-19T07:37:40.628Z,34.13
2023-09-19T07:38:46.472Z,34.24
2023-09-19T07:39:51.619Z,34.38
2023-09-19T07:40:57.481Z,34.49
2023-09-19T07:42:03.660Z,34.58
2023-09-19T07:43:09.953Z,34.67
2023-09-19T07:44:14.659Z,34.73
2023-09-19T07:45:21.172Z,34.80
2023-09-19T07:46:26.822Z,34.86
2023-09-19T07:47:34.429Z,34.95
2023-09-19T07:48:40.271Z,34.91
2023-09-19T07:49:46.207Z,34.84
2023-09-19T07:50:50.697Z,34.79
2023-09-19T07:51:56.759Z,34.78
2023-09-19T07:53:01.253Z,34.84
2023-09-19T07:54:07.468Z,34.89
2023-09-19T07:55:13.356Z,34.91
2023-09-19T07:56:21.840Z,34.94
2023-09-19T07:57:28.404Z,35.00
2023-09-19T07:58:35.260Z,35.10
2023-09-19T07:59:40.357Z,35.23
2023-09-19T08:00:47.362Z,35.39
2023-09-19T08:01:52.178Z,35.51
2023-09-19T08:03:04.006Z,35.62
2023-09-19T08:04:11.096Z,35.70
2023-09-19T08:05:19.055Z,35.73
2023-09-19T08:06:23.706Z,35.76
2023-09-19T08:07:30.783Z,35.83
2023-09-19T08:08:36.551Z,35.90
2023-09-19T08:09:42.312Z,35.97
2023-09-19T08:10:50.913Z,36.06
2023-09-19T08:11:56.731Z,36.17
2023-09-19T08:13:04.564Z,36.27
2023-09-19T08:14:11.014Z,36.40
2023-09-19T08:15:16.394Z,36.40
2023-09-19T08:16:24.545Z,36.41
2023-09-19T08:17:29.238Z,36.38
2023-09-19T08:18:35.540Z,36.30
2023-09-19T08:19:44.317Z,36.21
2023-09-19T08:20:54.912Z,36.07
2023-09-19T08:22:00.448Z,35.89
2023-09-19T08:23:06.411Z,35.73
2023-09-19T08:24:12.077Z,35.61
2023-09-19T08:25:19.637Z,35.53
2023-09-19T08:26:24.115Z,35.50
2023-09-19T08:27:30.502Z,35.49
2023-09-19T08:28:37.120Z,35.50
2023-09-19T08:29:42.897Z,35.58
2023-09-19T08:30:47.724Z,35.62
2023-09-19T08:31:53.617Z,35.62
2023-09-19T08:33:01.243Z,35.68
2023-09-19T08:34:07.277Z,35.70
2023-09-19T08:35:12.248Z,35.79
2023-09-19T08:36:18.051Z,35.90
2023-09-19T08:37:22.732Z,36.00
2023-09-19T08:38:31.812Z,36.02
2023-09-19T08:39:40.513Z,36.21
2023-09-19T08:40:46.288Z,36.27
2023-09-19T08:41:50.824Z,36.40
2023-09-19T08:42:57.433Z,36.52
2023-09-19T08:44:04.870Z,36.58
2023-09-19T08:45:14.059Z,36.66
2023-09-19T08:46:19.392Z,36.63
2023-09-19T08:47:35.150Z,36.69
2023-09-19T08:48:42.880Z,36.79
2023-09-19T08:49:58.173Z,36.93
2023-09-19T08:51:05.896Z,37.08
2023-09-19T08:52:17.773Z,37.13
2023-09-19T08:53:30.166Z,37.14
2023-09-19T08:54:40.305Z,37.22
2023-09-19T08:55:46.872Z,37.27
2023-09-19T08:56:52.937Z,37.31
2023-09-19T08:58:03.701Z,37.38
2023-09-19T08:59:11.816Z,37.37
2023-09-19T09:00:19.611Z,37.41
2023-09-19T09:01:27.080Z,37.48
2023-09-19T09:02:32.356Z,37.52
2023-09-19T09:03:39.079Z,37.53
2023-09-19T09:04:44.145Z,37.53
2023-09-19T09:05:52.376Z,37.57
2023-09-19T09:06:57.314Z,37.64
2023-09-19T09:08:03.536Z,37.70
2023-09-19T09:09:08.425Z,37.78
2023-09-19T09:10:14.669Z,37.76
2023-09-19T09:11:19.577Z,37.71
2023-09-19T09:12:25.575Z,37.60
2023-09-19T09:13:30.125Z,37.54
2023-09-19T09:14:37.565Z,37.53
2023-09-19T09:15:42.417Z,37.56
2023-09-19T09:16:48.277Z,37.51
2023-09-19T09:17:55.111Z,37.54
2023-09-19T09:19:01.174Z,37.48
2023-09-19T09:20:10.324Z,37.46
2023-09-19T09:21:17.865Z,37.50
2023-09-19T09:22:23.481Z,37.44
2023-09-19T09:23:34.015Z,37.43
2023-09-19T09:24:42.474Z,37.44
2023-09-19T09:25:58.677Z,37.44
2023-09-19T09:27:09.460Z,37.43
2023-09-19T09:28:23.763Z,37.42
2023-09-19T09:29:50.867Z,37.27
2023-09-19T09:30:57.370Z,37.13
2023-09-19T09:32:22.056Z,37.04
2023-09-19T09:33:28.051Z,37.02
2023-09-19T09:34:36.697Z,37.00
2023-09-19T09:35:55.626Z,36.97
2023-09-19T09:37:00.373Z,36.89
2023-09-19T09:38:10.475Z,36.86
2023-09-19T09:39:28.683Z,36.81
2023-09-19T09:40:54.645Z,36.78
2023-09-19T09:42:01.378Z,36.79
2023-09-19T09:43:07.923Z,36.80
2023-09-19T09:44:17.427Z,36.81
2023-09-19T09:45:32.543Z,36.82
2023-09-19T09:46:54.651Z,36.82
2023-09-19T09:47:59.346Z,36.82
2023-09-19T09:49:30.562Z,36.82
2023-09-19T09:50:46.880Z,36.77
2023-09-19T09:52:01.633Z,36.75
2023-09-19T09:53:09.306Z,36.72
2023-09-19T09:54:16.476Z,36.68
2023-09-19T09:55:22.644Z,36.57
2023-09-19T09:56:27.134Z,36.46
2023-09-19T09:57:32.983Z,36.36
2023-09-19T09:58:38.568Z,36.33
2023-09-19T10:00:18.519Z,36.23
2023-09-19T10:01:28.715Z,36.19
2023-09-19T10:02:40.254Z,36.14
2023-09-19T10:03:47.727Z,36.07
2023-09-19T10:05:02.889Z,36.03
2023-09-19T10:06:21.094Z,35.98
2023-09-19T10:07:38.059Z,35.93
2023-09-19T10:08:45.271Z,35.83
2023-09-19T10:09:51.289Z,35.73
2023-09-19T10:10:56.073Z,35.63
2023-09-19T10:12:08.273Z,35.51
2023-09-19T10:13:17.117Z,35.38
2023-09-19T10:14:26.008Z,35.22
2023-09-19T10:15:32.404Z,35.10
2023-09-19T10:16:40.095Z,35.00
2023-09-19T10:17:46.262Z,34.90
2023-09-19T10:18:54.641Z,34.79
2023-09-19T10:20:00.079Z,34.70
2023-09-19T10:21:09.288Z,34.62
2023-09-19T10:22:15.050Z,34.55
2023-09-19T10:23:25.319Z,34.49
2023-09-19T10:24:30.359Z,34.45
2023-09-19T10:25:39.058Z,34.43
2023-09-19T10:26:47.134Z,34.41
2023-09-19T10:27:55.523Z,34.38
2023-09-19T10:29:01.757Z,34.34
2023-09-19T10:30:10.868Z,34.32
2023-09-19T10:31:16.360Z,34.28
2023-09-19T10:32:24.334Z,34.25
2023-09-19T10:33:28.954Z,34.23
2023-09-19T10:34:35.406Z,34.20
2023-09-19T10:35:43.038Z,34.18
2023-09-19T10:36:50.461Z,34.12
2023-09-19T10:37:55.390Z,34.07
2023-09-19T10:39:06.821Z,34.04
2023-09-19T10:40:13.830Z,34.01
2023-09-19T10:41:21.718Z,33.98
2023-09-19T10:42:27.052Z,33.96
2023-09-19T10:43:37.007Z,33.93
2023-09-19T10:44:46.075Z,33.89
2023-09-19T10:45:51.703Z,33.84
2023-09-19T10:46:59.336Z,33.81
2023-09-19T10:48:07.252Z,33.78
2023-09-19T10:49:15.875Z,33.74
2023-09-19T10:50:25.753Z,33.70
2023-09-19T10:51:33.733Z,33.68
2023-09-19T10:52:45.420Z,33.66
2023-09-19T10:53:54.083Z,33.60
2023-09-19T10:55:04.426Z,33.59
2023-09-19T10:56:12.328Z,33.54
2023-09-19T10:57:26.050Z,33.49
2023-09-19T10:58:31.871Z,33.46
2023-09-19T10:59:43.054Z,33.41
2023-09-19T11:00:56.126Z,33.36
2023-09-19T11:02:03.642Z,33.29
2023-09-19T11:03:25.245Z,33.26
2023-09-19T11:04:36.248Z,33.22
2023-09-19T11:05:42.672Z,33.19
2023-09-19T11:07:12.730Z,33.12
2023-09-19T11:08:17.721Z,33.08
2023-09-19T11:09:28.414Z,33.05
2023-09-19T11:10:49.041Z,32.97
2023-09-19T11:11:59.409Z,32.93
2023-09-19T11:13:28.172Z,32.86
2023-09-19T11:14:35.442Z,32.81
2023-09-19T11:16:15.541Z,32.73
2023-09-19T11:17:43.364Z,32.64
2023-09-19T11:19:00.103Z,32.62
2023-09-19T11:20:46.784Z,32.62
2023-09-19T11:21:57.300Z,32.61
2023-09-19T11:23:28.754Z,32.59
2023-09-19T11:24:40.580Z,32.57
2023-09-19T11:25:49.749Z,32.56
2023-09-19T11:26:55.854Z,32.54
2023-09-19T11:28:33.481Z,32.48
2023-09-19T11:29:39.789Z,32.42
2023-09-19T11:30:45.669Z,32.37
2023-09-19T11:31:51.241Z,32.32
2023-09-19T11:33:22.591Z,32.27
2023-09-19T11:34:53.666Z,32.22
2023-09-19T11:36:06.654Z,32.18
2023-09-19T11:38:10.137Z,32.13
2023-09-19T11:39:31.196Z,32.07
2023-09-19T11:40:37.194Z,32.03
2023-09-19T11:41:44.017Z,32.00
2023-09-19T11:42:51.849Z,31.95
2023-09-19T11:43:58.673Z,31.92
2023-09-19T11:45:03.222Z,31.89
2023-09-19T11:46:08.381Z,31.87
2023-09-19T11:47:15.843Z,31.87
2023-09-19T11:48:21.959Z,31.88
2023-09-19T11:49:33.774Z,31.88
2023-09-19T11:50:45.298Z,31.86
2023-09-19T11:51:52.681Z,31.85
2023-09-19T11:52:57.569Z,31.82
2023-09-19T11:54:03.414Z,31.76
2023-09-19T11:55:11.224Z,31.70
2023-09-19T11:56:17.082Z,31.54
2023-09-19T11:57:24.151Z,31.36
2023-09-19T11:58:32.007Z,31.18
2023-09-19T11:59:38.370Z,30.96
2023-09-19T12:00:47.239Z,30.85
2023-09-19T12:02:01.235Z,30.71
2023-09-19T12:03:11.350Z,30.61
2023-09-19T12:04:18.005Z,30.54
2023-09-19T12:05:31.999Z,30.45
2023-09-19T12:06:45.095Z,30.34
2023-09-19T12:07:49.995Z,30.29
2023-09-19T12:09:02.629Z,30.22
2023-09-19T12:10:10.959Z,30.11
2023-09-19T12:11:22.075Z,30.09
2023-09-19T12:12:29.025Z,30.04
2023-09-19T12:13:35.000Z,29.91
2023-09-19T12:14:39.580Z,29.85
2023-09-19T12:15:47.355Z,29.77
2023-09-19T12:16:57.607Z,29.66
2023-09-19T12:18:03.533Z,29.59
2023-09-19T12:19:24.367Z,29.48
2023-09-19T12:20:30.616Z,29.46
2023-09-19T12:21:38.632Z,29.39
2023-09-19T12:22:45.890Z,29.34
2023-09-19T12:24:01.401Z,29.31
2023-09-19T12:25:13.140Z,29.25
2023-09-19T12:26:17.788Z,29.17
2023-09-19T12:27:24.536Z,29.13
2023-09-19T12:28:34.387Z,29.06
2023-09-19T12:30:30.565Z,28.93
2023-09-19T12:31:39.129Z,28.80
2023-09-19T12:32:45.090Z,28.67
2023-09-19T12:33:49.781Z,28.56
2023-09-19T12:34:56.657Z,28.50
2023-09-19T12:36:01.249Z,28.41
2023-09-19T12:37:17.706Z,28.36
2023-09-19T12:38:30.297Z,28.34
2023-09-19T12:39:34.853Z,28.30
2023-09-19T12:40:40.943Z,28.26
2023-09-19T12:41:49.508Z,28.25
2023-09-19T12:42:57.364Z,28.19
2023-09-19T12:44:02.374Z,28.18
2023-09-19T12:45:15.893Z,28.12
2023-09-19T12:46:28.889Z,28.12
2023-09-19T12:47:36.641Z,28.09
2023-09-19T12:48:46.133Z,28.05
2023-09-19T12:50:42.663Z,28.02
2023-09-19T12:51:47.616Z,28.00
2023-09-19T12:53:00.030Z,27.98
2023-09-19T12:54:04.758Z,27.95
2023-09-19T12:55:12.929Z,27.94
2023-09-19T12:56:18.122Z,27.90
2023-09-19T12:57:28.989Z,27.88
2023-09-19T12:58:34.691Z,27.84
2023-09-19T12:59:40.951Z,27.83
2023-09-19T13:00:47.071Z,27.83
2023-09-19T13:02:13.223Z,27.80
2023-09-19T13:03:28.577Z,27.78
2023-09-19T13:04:35.401Z,27.74
2023-09-19T13:05:58.019Z,27.67
2023-09-19T13:07:04.051Z,27.66
2023-09-19T13:08:28.919Z,27.65
2023-09-19T13:09:37.125Z,27.61
2023-09-19T13:11:06.137Z,27.55
2023-09-19T13:12:44.511Z,27.48
2023-09-19T13:13:51.420Z,27.46
2023-09-19T13:15:17.306Z,27.43
2023-09-19T13:16:25.847Z,27.45
2023-09-19T13:17:48.622Z,27.43
2023-09-19T13:18:55.666Z,27.41
2023-09-19T13:20:01.635Z,27.40
2023-09-19T13:21:12.599Z,27.36
2023-09-19T13:22:43.468Z,27.33
2023-09-19T13:23:50.196Z,27.31
2023-09-19T13:24:56.246Z,27.29
2023-09-19T13:26:01.035Z,27.27
2023-09-19T13:27:08.826Z,27.24
2023-09-19T13:28:13.382Z,27.21
2023-09-19T13:29:20.479Z,27.21
2023-09-19T13:30:27.135Z,27.20
2023-09-19T13:31:33.214Z,27.21
2023-09-19T13:32:37.877Z,27.21
2023-09-19T13:33:48.185Z,27.23
2023-09-19T13:34:53.546Z,27.20
2023-09-19T13:36:00.266Z,27.18
2023-09-19T13:37:05.345Z,27.18
2023-09-19T13:38:13.505Z,27.19
2023-09-19T13:39:19.812Z,27.18
2023-09-19T13:40:25.674Z,27.18
2023-09-19T13:41:31.170Z,27.19
2023-09-19T13:42:38.501Z,27.20
2023-09-19T13:43:43.119Z,27.21
2023-09-19T13:44:49.120Z,27.23
2023-09-19T13:45:53.645Z,27.26
2023-09-19T13:46:59.632Z,27.28
2023-09-19T13:48:04.365Z,27.30
2023-09-19T13:49:10.180Z,27.32
2023-09-19T13:50:14.880Z,27.33
2023-09-19T13:51:22.021Z,27.33
2023-09-19T13:52:26.529Z,27.32
2023-09-19T13:53:32.368Z,27.32
2023-09-19T13:54:38.540Z,27.34
2023-09-19T13:55:43.353Z,27.37
2023-09-19T13:56:49.143Z,27.39
2023-09-19T13:57:58.117Z,27.41
2023-09-19T13:59:04.076Z,27.40
2023-09-19T14:00:12.342Z,27.42
2023-09-19T14:01:18.493Z,27.45
2023-09-19T14:02:25.073Z,27.48
2023-09-19T14:03:31.787Z,27.50
2023-09-19T14:04:36.712Z,27.52
2023-09-19T14:05:42.658Z,27.54
2023-09-19T14:06:48.440Z,27.56
2023-09-19T14:07:54.364Z,27.57
2023-09-19T14:08:58.945Z,27.59
2023-09-19T14:10:11.705Z,27.56
2023-09-19T14:11:16.763Z,27.57
2023-09-19T14:12:23.199Z,27.56
2023-09-19T14:13:27.979Z,27.55
2023-09-19T14:14:34.019Z,27.52
2023-09-19T14:15:40.863Z,27.50
2023-09-19T14:16:46.812Z,27.47
2023-09-19T14:17:51.812Z,27.47
2023-09-19T14:18:57.752Z,27.48
2023-09-19T14:20:02.289Z,27.44
2023-09-19T14:21:08.918Z,27.44
2023-09-19T14:22:13.931Z,27.42
2023-09-19T14:23:19.774Z,27.40
2023-09-19T14:24:24.641Z,27.38
2023-09-19T14:25:32.821Z,27.37
2023-09-19T14:26:37.331Z,27.37
2023-09-19T14:27:43.661Z,27.34
2023-09-19T14:28:48.202Z,27.34
2023-09-19T14:29:54.044Z,27.32
2023-09-19T14:30:58.765Z,27.30
2023-09-19T14:32:04.831Z,27.29
2023-09-19T14:33:09.498Z,27.28
2023-09-19T14:34:16.332Z,27.27
2023-09-19T14:35:20.975Z,27.26
2023-09-19T14:36:28.910Z,27.26
2023-09-19T14:37:34.782Z,27.25
2023-09-19T14:38:40.271Z,27.27